createdAt,value
2022-08-14T00:02:02.288Z,75.28
2022-08-14T00:04:41.905Z,75.25
2022-08-14T00:07:13.792Z,75.25
2022-08-14T00:10:01.793Z,75.40
2022-08-14T00:12:33.459Z,75.32
2022-08-14T00:15:13.376Z,75.45
2022-08-14T00:17:48.171Z,75.47
2022-08-14T00:20:30.150Z,75.53
2022-08-14T00:22:58.808Z,75.32
2022-08-14T00:25:42.321Z,75.25
2022-08-14T00:28:15.339Z,75.21
2022-08-14T00:30:47.450Z,75.23
2022-08-14T00:33:16.380Z,75.33
2022-08-14T00:36:37.318Z,75.58
2022-08-14T00:38:35.319Z,75.50
2022-08-14T00:41:06.125Z,75.63
2022-08-14T00:43:34.266Z,75.73
2022-08-14T00:46:08.014Z,75.85
2022-08-14T00:48:38.346Z,75.85
2022-08-14T00:51:14.895Z,76.25
2022-08-14T00:53:43.757Z,76.22
2022-08-14T00:56:15.557Z,76.22
2022-08-14T00:58:45.107Z,76.16
2022-08-14T01:01:17.020Z,76.23
2022-08-14T01:03:45.513Z,76.40
2022-08-14T01:06:19.239Z,76.59
2022-08-14T01:08:51.607Z,76.65
2022-08-14T01:11:31.827Z,76.75
2022-08-14T01:14:25.978Z,77.11
2022-08-14T01:16:55.749Z,77.08
2022-08-14T01:19:43.343Z,77.21
2022-08-14T01:22:13.436Z,77.49
2022-08-14T01:24:47.216Z,77.30
2022-08-14T01:27:18.207Z,77.69
2022-08-14T01:29:59.144Z,77.47
2022-08-14T01:32:37.414Z,77.52
2022-08-14T01:35:19.129Z,77.69
2022-08-14T01:37:59.890Z,78.08
2022-08-14T01:40:33.152Z,78.17
2022-08-14T01:43:09.005Z,78.26
2022-08-14T01:45:40.835Z,78.32
2022-08-14T01:48:13.940Z,78.34
2022-08-14T01:50:44.187Z,78.64
2022-08-14T01:53:14.903Z,78.62
2022-08-14T01:55:43.803Z,78.77
2022-08-14T01:58:19.739Z,78.83
2022-08-14T02:00:58.875Z,78.64
2022-08-14T02:03:31.003Z,78.97
2022-08-14T02:06:04.304Z,78.84
2022-08-14T02:08:52.986Z,78.92
2022-08-14T02:11:24.766Z,78.92
2022-08-14T02:13:56.746Z,79.27
2022-08-14T02:16:27.348Z,79.24
2022-08-14T02:18:58.163Z,79.18
2022-08-14T02:21:27.281Z,79.45
2022-08-14T02:23:57.557Z,79.52
2022-08-14T02:26:29.809Z,79.35
2022-08-14T02:29:04.198Z,79.28
2022-08-14T02:31:42.398Z,79.10
2022-08-14T02:34:14.747Z,79.29
2022-08-14T02:37:04.591Z,79.64
2022-08-14T02:39:38.619Z,79.44
2022-08-14T02:42:12.858Z,79.39
2022-08-14T02:44:49.051Z,79.35
2022-08-14T02:47:21.078Z,79.09
2022-08-14T02:49:56.693Z,79.47
2022-08-14T02:52:55.656Z,79.19
2022-08-14T02:55:20.082Z,79.21
2022-08-14T02:58:03.393Z,79.36
2022-08-14T03:00:40.104Z,79.28
2022-08-14T03:03:08.989Z,79.38
2022-08-14T03:05:41.284Z,79.28
2022-08-14T03:08:15.382Z,79.45
2022-08-14T03:10:49.350Z,79.36
2022-08-14T03:13:21.458Z,79.42
2022-08-14T03:15:55.309Z,79.48
2022-08-14T03:18:30.813Z,79.51
2022-08-14T03:21:01.789Z,79.53
2022-08-14T03:23:38.223Z,79.56
2022-08-14T03:26:12.632Z,79.66
2022-08-14T03:28:43.348Z,79.97
2022-08-14T03:31:13.152Z,79.98
2022-08-14T03:33:45.508Z,79.90
2022-08-14T03:37:51.228Z,80.06
2022-08-14T03:39:21.928Z,79.85
2022-08-14T03:41:54.229Z,80.33
2022-08-14T03:45:27.001Z,80.36
2022-08-14T03:47:12.147Z,80.33
2022-08-14T03:49:44.120Z,80.50
2022-08-14T03:52:28.163Z,80.72
2022-08-14T03:55:03.966Z,80.61
2022-08-14T03:57:37.228Z,80.90
2022-08-14T04:00:14.028Z,80.85
2022-08-14T04:02:57.240Z,80.85
2022-08-14T04:05:26.611Z,80.83
2022-08-14T04:08:08.484Z,81.05
2022-08-14T04:10:42.937Z,81.08
2022-08-14T04:13:18.358Z,81.19
2022-08-14T04:15:56.387Z,81.21
2022-08-14T04:18:30.621Z,81.15
2022-08-14T04:20:59.441Z,81.15
2022-08-14T04:23:29.465Z,80.93
2022-08-14T04:26:08.286Z,81.08
2022-08-14T04:29:01.945Z,81.00
2022-08-14T04:32:58.418Z,80.86
2022-08-14T04:34:27.303Z,81.04
2022-08-14T04:37:17.400Z,81.06
2022-08-14T04:40:08.621Z,81.14
2022-08-14T04:43:03.264Z,80.96
2022-08-14T04:45:40.933Z,80.85
2022-08-14T04:48:12.976Z,80.94
2022-08-14T04:50:44.305Z,80.94
2022-08-14T04:53:15.797Z,80.91
2022-08-14T04:55:50.019Z,80.90
2022-08-14T04:58:32.421Z,80.65
2022-08-14T05:01:06.288Z,80.47
2022-08-14T05:03:42.240Z,80.34
2022-08-14T05:06:37.705Z,80.33
2022-08-14T05:09:00.809Z,80.01
2022-08-14T05:11:34.652Z,79.77
2022-08-14T05:14:34.338Z,79.74
2022-08-14T05:16:54.267Z,79.44
2022-08-14T05:19:29.565Z,79.08
2022-08-14T05:22:15.796Z,78.97
2022-08-14T05:24:48.699Z,78.84
2022-08-14T05:27:22.801Z,78.86
2022-08-14T05:29:55.141Z,78.78
2022-08-14T05:32:27.653Z,78.41
2022-08-14T05:34:58.477Z,77.67
2022-08-14T05:37:28.015Z,77.38
2022-08-14T05:39:57.504Z,76.86
2022-08-14T05:42:29.270Z,76.30
2022-08-14T05:45:00.354Z,75.78
2022-08-14T05:47:33.937Z,75.35
2022-08-14T05:50:17.571Z,74.95
2022-08-14T05:52:47.360Z,74.33
2022-08-14T05:55:15.648Z,73.84
2022-08-14T05:57:53.330Z,73.44
2022-08-14T06:00:28.350Z,72.96
2022-08-14T06:02:59.978Z,72.18
2022-08-14T06:05:29.614Z,71.88
2022-08-14T06:07:59.352Z,71.53
2022-08-14T06:10:28.530Z,71.08
2022-08-14T06:12:58.163Z,71.16
2022-08-14T06:15:30.678Z,70.71
2022-08-14T06:18:01.748Z,70.18
2022-08-14T06:20:41.178Z,69.97
2022-08-14T06:23:09.350Z,69.43
2022-08-14T06:25:37.636Z,69.03
2022-08-14T06:28:06.465Z,68.47
2022-08-14T06:30:54.926Z,68.09
2022-08-14T06:33:30.130Z,67.87
2022-08-14T06:36:12.859Z,67.33
2022-08-14T06:38:46.545Z,67.27
2022-08-14T06:41:20.858Z,66.93
2022-08-14T06:44:04.601Z,66.00
2022-08-14T06:46:34.085Z,65.80
2022-08-14T06:49:04.305Z,65.19
2022-08-14T06:51:44.338Z,64.52
2022-08-14T06:54:12.884Z,63.81
2022-08-14T06:56:44.230Z,63.79
2022-08-14T06:59:19.637Z,63.70
2022-08-14T07:02:06.094Z,63.31
2022-08-14T07:04:59.930Z,62.56
2022-08-14T07:07:39.306Z,63.04
2022-08-14T07:10:07.929Z,62.71
2022-08-14T07:13:02.056Z,62.28
2022-08-14T07:15:33.671Z,62.36
2022-08-14T07:18:03.824Z,62.03
2022-08-14T07:20:38.762Z,60.58
2022-08-14T07:23:10.707Z,58.88
2022-08-14T07:25:42.042Z,57.28
2022-08-14T07:28:20.700Z,54.75
2022-08-14T07:30:51.595Z,53.85
2022-08-14T07:33:29.205Z,52.61
2022-08-14T07:36:01.900Z,51.57
2022-08-14T07:38:37.660Z,51.11
2022-08-14T07:41:14.371Z,49.60
2022-08-14T07:43:52.950Z,48.09
2022-08-14T07:46:28.234Z,47.10
2022-08-14T07:48:58.374Z,46.26
2022-08-14T07:51:34.131Z,45.34
2022-08-14T07:54:03.399Z,45.66
2022-08-14T07:56:47.912Z,45.38
2022-08-14T07:59:18.693Z,44.24
2022-08-14T08:01:48.259Z,42.58
2022-08-14T08:04:26.961Z,41.63
2022-08-14T08:06:56.798Z,41.42
2022-08-14T08:09:32.121Z,40.33
2022-08-14T08:12:04.581Z,39.93
2022-08-14T08:14:56.754Z,38.93
2022-08-14T08:17:24.628Z,39.39
2022-08-14T08:19:52.651Z,38.57
2022-08-14T08:22:23.828Z,38.72
2022-08-14T08:24:55.670Z,38.02
2022-08-14T08:27:25.894Z,38.14
2022-08-14T08:30:10.211Z,37.43
2022-08-14T08:32:41.419Z,37.56
2022-08-14T08:35:19.090Z,37.31
2022-08-14T08:37:48.665Z,37.61
2022-08-14T08:40:32.416Z,36.96
2022-08-14T08:43:00.419Z,36.26
2022-08-14T08:45:30.367Z,35.87
2022-08-14T08:47:59.115Z,36.35
2022-08-14T08:53:04.618Z,35.51
2022-08-14T08:55:35.578Z,34.71
2022-08-14T08:58:16.016Z,33.82
2022-08-14T09:00:48.833Z,32.73
2022-08-14T09:03:20.809Z,33.71
2022-08-14T09:05:54.003Z,33.48
2022-08-14T09:08:31.670Z,33.21
2022-08-14T09:11:02.887Z,34.17
2022-08-14T09:13:49.934Z,33.60
2022-08-14T09:16:21.143Z,31.98
2022-08-14T09:18:49.995Z,31.38
2022-08-14T09:21:24.061Z,30.01
2022-08-14T09:24:29.441Z,30.95
2022-08-14T09:26:49.600Z,29.49
2022-08-14T09:29:22.887Z,29.02
2022-08-14T09:31:57.268Z,28.98
2022-08-14T09:34:39.544Z,28.96
2022-08-14T09:37:36.074Z,28.15
2022-08-14T09:40:16.603Z,27.60
2022-08-14T09:42:59.058Z,28.01
2022-08-14T09:45:40.309Z,28.76
2022-08-14T09:48:29.932Z,28.13
2022-08-14T09:54:13.549Z,28.45
2022-08-14T09:56:32.914Z,27.62
2022-08-14T09:59:15.374Z,27.00
2022-08-14T10:01:46.082Z,26.87
2022-08-14T10:04:33.744Z,26.74
2022-08-14T10:07:05.339Z,26.60
2022-08-14T10:09:35.004Z,25.51
2022-08-14T10:12:13.288Z,25.74
2022-08-14T10:14:53.070Z,24.86
2022-08-14T10:17:27.621Z,23.99
2022-08-14T10:20:01.307Z,25.11
2022-08-14T10:23:13.512Z,25.86
2022-08-14T10:25:19.928Z,26.39
2022-08-14T10:27:59.974Z,26.59
2022-08-14T10:30:35.248Z,26.92
2022-08-14T10:33:07.063Z,27.90
2022-08-14T10:35:42.570Z,27.90
2022-08-14T10:38:19.007Z,28.41
2022-08-14T10:40:51.973Z,27.93
2022-08-14T10:43:25.807Z,27.17
2022-08-14T10:46:03.668Z,27.24
2022-08-14T10:48:58.238Z,26.88
2022-08-14T10:51:29.909Z,26.53
2022-08-14T10:54:01.944Z,27.32
2022-08-14T10:56:52.038Z,26.87
2022-08-14T10:59:34.993Z,25.73
2022-08-14T11:02:35.828Z,25.90
2022-08-14T11:05:13.214Z,26.50
2022-08-14T11:07:44.567Z,26.02
2022-08-14T11:10:15.703Z,25.15
2022-08-14T11:12:48.122Z,25.29
2022-08-14T11:15:20.277Z,26.16
2022-08-14T11:17:49.537Z,25.67
2022-08-14T11:20:20.237Z,26.29
2022-08-14T11:22:57.985Z,25.90
2022-08-14T11:25:44.119Z,26.17
2022-08-14T11:28:20.901Z,24.63
2022-08-14T11:31:14.055Z,24.52
2022-08-14T11:33:42.669Z,25.50
2022-08-14T11:36:17.787Z,25.35
2022-08-14T11:38:47.564Z,25.09
2022-08-14T11:41:17.645Z,25.37
2022-08-14T11:43:57.880Z,25.79
2022-08-14T11:46:30.585Z,25.04
2022-08-14T11:49:06.703Z,25.20
2022-08-14T11:51:53.652Z,25.75
2022-08-14T11:54:30.040Z,25.47
2022-08-14T11:57:04.666Z,25.73
2022-08-14T11:59:34.166Z,25.21
2022-08-14T12:03:08.565Z,24.46
2022-08-14T12:05:00.230Z,25.72
2022-08-14T12:07:28.811Z,25.43
2022-08-14T12:10:00.806Z,25.25
2022-08-14T12:12:49.993Z,25.19
2022-08-14T12:15:30.564Z,25.43
2022-08-14T12:18:01.488Z,25.81
2022-08-14T12:20:34.644Z,25.59
2022-08-14T12:23:05.240Z,25.57
2022-08-14T12:25:37.510Z,25.00
2022-08-14T12:28:33.358Z,24.67
2022-08-14T12:31:02.109Z,25.72
2022-08-14T12:33:34.575Z,25.62
2022-08-14T12:36:06.143Z,24.94
2022-08-14T12:38:37.868Z,24.32
2022-08-14T12:41:11.600Z,25.13
2022-08-14T12:43:51.669Z,25.23
2022-08-14T12:46:28.306Z,25.46
2022-08-14T12:49:00.226Z,24.91
2022-08-14T12:51:31.336Z,25.10
2022-08-14T12:54:00.503Z,24.54
2022-08-14T12:56:33.672Z,25.80
2022-08-14T12:59:04.578Z,26.19
2022-08-14T13:01:59.738Z,25.77
2022-08-14T13:04:25.733Z,26.38
2022-08-14T13:06:54.088Z,26.72
2022-08-14T13:09:35.891Z,26.87
2022-08-14T13:12:32.243Z,27.01
2022-08-14T13:14:58.822Z,26.65
2022-08-14T13:17:27.284Z,26.00
2022-08-14T13:20:01.128Z,26.76
2022-08-14T13:22:33.561Z,26.50
2022-08-14T13:25:07.406Z,26.55
2022-08-14T13:27:38.646Z,26.07
2022-08-14T13:30:14.562Z,26.36
2022-08-14T13:32:53.316Z,26.62
2022-08-14T13:35:23.098Z,27.18
2022-08-14T13:37:53.692Z,26.67
2022-08-14T13:40:26.211Z,26.87
2022-08-14T13:42:57.220Z,26.79
2022-08-14T13:45:33.954Z,26.78
2022-08-14T13:48:18.517Z,26.30
2022-08-14T13:51:05.639Z,27.09
2022-08-14T13:53:52.598Z,27.66
2022-08-14T13:56:36.859Z,27.48
2022-08-14T13:59:06.512Z,27.20
2022-08-14T14:01:43.476Z,27.19
2022-08-14T14:04:19.279Z,27.32
2022-08-14T14:06:52.287Z,27.14
2022-08-14T14:09:32.567Z,27.13
2022-08-14T14:12:38.354Z,27.38
2022-08-14T14:15:05.469Z,27.39
2022-08-14T14:17:34.089Z,27.79
2022-08-14T14:20:04.552Z,27.58
2022-08-14T14:23:00.939Z,27.18
2022-08-14T14:25:22.564Z,27.25
2022-08-14T14:27:53.452Z,28.41
2022-08-14T14:30:46.200Z,28.55
2022-08-14T14:33:42.207Z,28.58
2022-08-14T14:36:05.185Z,28.60
2022-08-14T14:38:35.258Z,28.97
2022-08-14T14:41:05.793Z,28.67
2022-08-14T14:43:38.968Z,28.38
2022-08-14T14:46:09.476Z,28.13
2022-08-14T14:48:46.700Z,28.71
2022-08-14T14:51:22.641Z,28.42
2022-08-14T14:53:52.841Z,28.15
2022-08-14T14:56:50.258Z,28.58
2022-08-14T14:59:12.699Z,28.71
2022-08-14T15:01:41.344Z,28.42
2022-08-14T15:04:19.812Z,28.60
2022-08-14T15:06:49.158Z,28.84
2022-08-14T15:09:20.414Z,29.01
2022-08-14T15:11:51.182Z,28.94
2022-08-14T15:14:56.203Z,28.86
2022-08-14T15:17:08.802Z,28.97
2022-08-14T15:19:38.518Z,29.09
2022-08-14T15:22:10.592Z,28.80
2022-08-14T15:24:40.538Z,28.60
2022-08-14T15:27:10.701Z,28.46
2022-08-14T15:29:43.205Z,27.99
2022-08-14T15:32:11.613Z,28.07
2022-08-14T15:34:48.683Z,28.27
2022-08-14T15:37:22.697Z,27.96
2022-08-14T15:39:53.043Z,27.95
2022-08-14T15:42:23.149Z,28.23
2022-08-14T15:44:58.385Z,28.54
2022-08-14T15:47:31.151Z,28.95
2022-08-14T15:50:01.194Z,29.13
2022-08-14T15:52:33.734Z,28.82
2022-08-14T15:55:10.531Z,28.95
2022-08-14T15:58:01.665Z,28.62
2022-08-14T16:00:50.206Z,28.60
2022-08-14T16:03:27.552Z,28.79
2022-08-14T16:06:11.023Z,28.68
2022-08-14T16:08:50.339Z,28.40
2022-08-14T16:11:33.414Z,28.32
2022-08-14T16:14:06.795Z,28.44
2022-08-14T16:16:51.458Z,27.65
2022-08-14T16:19:31.150Z,27.52
2022-08-14T16:22:58.611Z,27.79
2022-08-14T16:25:02.053Z,28.19
2022-08-14T16:27:39.478Z,27.64
2022-08-14T16:30:24.665Z,27.15
2022-08-14T16:32:57.014Z,27.16
2022-08-14T16:35:42.923Z,27.10
2022-08-14T16:38:35.800Z,26.92
2022-08-14T16:41:27.654Z,27.51
2022-08-14T16:44:01.519Z,27.59
2022-08-14T16:46:32.680Z,27.09
2022-08-14T16:49:01.510Z,27.81
2022-08-14T16:51:33.935Z,28.67
2022-08-14T16:54:33.810Z,29.47
2022-08-14T16:56:54.086Z,30.15
2022-08-14T16:59:30.514Z,31.64
2022-08-14T17:02:12.938Z,32.06
2022-08-14T17:04:49.212Z,32.45
2022-08-14T17:07:17.586Z,33.02
2022-08-14T17:09:48.497Z,33.47
2022-08-14T17:12:28.608Z,33.44
2022-08-14T17:15:10.568Z,33.87
2022-08-14T17:17:57.447Z,34.20
2022-08-14T17:21:00.570Z,34.58
2022-08-14T17:23:15.336Z,34.03
2022-08-14T17:25:49.355Z,34.31
2022-08-14T17:28:50.424Z,34.19
2022-08-14T17:31:12.797Z,34.92
2022-08-14T17:33:44.777Z,36.24
2022-08-14T17:36:24.283Z,36.75
2022-08-14T17:39:06.207Z,37.90
2022-08-14T17:41:38.743Z,38.00
2022-08-14T17:44:19.846Z,38.96
2022-08-14T17:46:57.023Z,39.71
2022-08-14T17:49:27.277Z,40.09
2022-08-14T17:52:17.515Z,41.01
2022-08-14T17:54:53.027Z,41.63
2022-08-14T17:57:35.234Z,42.56
2022-08-14T18:00:04.049Z,43.38
2022-08-14T18:02:36.546Z,44.17
2022-08-14T18:05:08.809Z,44.95
2022-08-14T18:07:50.687Z,45.71
2022-08-14T18:10:52.030Z,46.28
2022-08-14T18:13:16.583Z,46.92
2022-08-14T18:15:51.095Z,47.32
2022-08-14T18:18:21.529Z,48.19
2022-08-14T18:21:42.512Z,48.34
2022-08-14T18:23:44.778Z,48.89
2022-08-14T18:26:37.242Z,49.72
2022-08-14T18:29:07.612Z,49.94
2022-08-14T18:31:45.386Z,50.36
2022-08-14T18:34:30.799Z,51.28
2022-08-14T18:37:12.524Z,51.42
2022-08-14T18:40:03.224Z,52.17
2022-08-14T18:42:46.018Z,53.01
2022-08-14T18:45:26.385Z,53.32
2022-08-14T18:48:33.624Z,54.10
2022-08-14T18:51:45.710Z,54.65
2022-08-14T18:54:29.694Z,55.31
2022-08-14T18:57:02.278Z,55.45
2022-08-14T18:59:40.256Z,56.27
2022-08-14T19:02:44.532Z,57.08
2022-08-14T19:05:14.475Z,56.68
2022-08-14T19:07:48.252Z,57.85
2022-08-14T19:10:31.928Z,58.50
2022-08-14T19:13:12.398Z,59.00
2022-08-14T19:15:44.143Z,59.26
2022-08-14T19:18:26.493Z,60.23
2022-08-14T19:20:58.203Z,60.39
2022-08-14T19:23:42.467Z,60.70
2022-08-14T19:29:23.981Z,62.34
2022-08-14T19:31:55.271Z,62.47
2022-08-14T19:34:40.485Z,63.52
2022-08-14T19:37:47.749Z,63.63
2022-08-14T19:40:30.003Z,64.03
2022-08-14T19:43:01.338Z,64.16
2022-08-14T19:45:33.874Z,64.38
2022-08-14T19:48:02.807Z,65.29
2022-08-14T19:50:40.751Z,65.65
2022-08-14T19:53:17.291Z,66.06
2022-08-14T19:55:59.234Z,67.23
2022-08-14T19:58:55.494Z,67.55
2022-08-14T20:01:37.520Z,67.26
2022-08-14T20:04:46.939Z,67.88
2022-08-14T20:06:57.913Z,68.23
2022-08-14T20:11:04.171Z,68.77
2022-08-14T20:12:34.883Z,69.29
2022-08-14T20:15:15.536Z,69.56
2022-08-14T20:17:52.348Z,69.93
2022-08-14T20:20:31.815Z,69.78
2022-08-14T20:23:10.883Z,70.24
2022-08-14T20:25:55.696Z,70.53
2022-08-14T20:28:32.910Z,71.06
2022-08-14T20:31:20.148Z,71.51
2022-08-14T20:34:19.348Z,71.58
2022-08-14T20:37:02.820Z,71.40
2022-08-14T20:39:34.391Z,71.16
2022-08-14T20:42:24.947Z,71.81
2022-08-14T20:45:17.272Z,71.91
2022-08-14T20:47:50.531Z,71.71
2022-08-14T20:50:28.757Z,72.07
2022-08-14T20:52:59.646Z,72.36
2022-08-14T20:55:32.544Z,73.08
2022-08-14T20:58:09.818Z,73.31
2022-08-14T21:00:52.292Z,73.71
2022-08-14T21:03:37.228Z,74.13
2022-08-14T21:06:28.453Z,74.13
2022-08-14T21:09:03.320Z,74.85
2022-08-14T21:11:33.023Z,74.90
2022-08-14T21:14:24.919Z,75.18
2022-08-14T21:16:59.065Z,75.31
2022-08-14T21:19:30.193Z,75.88
2022-08-14T21:22:01.506Z,76.27
2022-08-14T21:24:39.227Z,76.59
2022-08-14T21:27:20.448Z,76.47
2022-08-14T21:29:55.491Z,76.84
2022-08-14T21:32:35.301Z,77.26
2022-08-14T21:35:09.039Z,78.04
2022-08-14T21:37:45.986Z,77.95
2022-08-14T21:40:39.853Z,78.44
2022-08-14T21:43:05.760Z,78.56
2022-08-14T21:45:35.514Z,79.00
2022-08-14T21:48:10.914Z,79.32
2022-08-14T21:51:01.322Z,79.67
2022-08-14T21:53:33.857Z,79.74
2022-08-14T21:56:03.973Z,80.14
2022-08-14T21:58:53.843Z,80.46
2022-08-14T22:01:21.740Z,80.90
2022-08-14T22:03:55.291Z,81.35
2022-08-14T22:06:28.849Z,81.85
2022-08-14T22:08:58.498Z,81.87
2022-08-14T22:11:27.736Z,82.26
2022-08-14T22:14:02.392Z,82.45
2022-08-14T22:17:02.252Z,82.57
2022-08-14T22:19:47.423Z,82.65
2022-08-14T22:22:26.012Z,83.01
2022-08-14T22:25:00.317Z,83.37
2022-08-14T22:27:32.199Z,83.78
2022-08-14T22:30:03.046Z,84.00
2022-08-14T22:32:55.911Z,84.21
2022-08-14T22:35:19.521Z,84.31
2022-08-14T22:38:01.852Z,84.91
2022-08-14T22:41:20.264Z,85.26
2022-08-14T22:43:35.248Z,85.38
2022-08-14T22:46:03.329Z,85.72
2022-08-14T22:48:45.397Z,86.07
2022-08-14T22:51:14.932Z,86.21
2022-08-14T22:53:46.249Z,86.74
2022-08-14T22:56:21.254Z,86.73
2022-08-14T22:58:54.034Z,87.07
2022-08-14T23:01:56.468Z,87.56
2022-08-14T23:04:35.155Z,87.52
2022-08-14T23:07:22.261Z,87.67
2022-08-14T23:09:56.930Z,87.99
2022-08-14T23:12:29.433Z,88.25
2022-08-14T23:15:00.109Z,88.75
2022-08-14T23:17:39.348Z,88.94
2022-08-14T23:20:18.999Z,89.46
2022-08-14T23:22:51.534Z,89.53
2022-08-14T23:25:56.693Z,90.12
2022-08-14T23:28:34.157Z,89.66
2022-08-14T23:31:08.634Z,89.53
2022-08-14T23:33:38.950Z,89.55
2022-08-14T23:36:31.928Z,90.02
2022-08-14T23:39:10.430Z,89.95
2022-08-14T23:41:46.860Z,90.40
2022-08-14T23:44:21.860Z,90.36
2022-08-14T23:46:52.594Z,90.37
2022-08-14T23:49:25.631Z,90.55
2022-08-14T23:51:59.604Z,90.84
2022-08-14T23:54:49.411Z,90.93
2022-08-14T23:57:19.498Z,91.10
2022-08-14T23:59:54.221Z,91.19
